createdAt,value
2022-09-18T00:00:37.137Z,15.25
2022-09-18T00:02:08.416Z,11.27
2022-09-18T00:03:39.971Z,11.97
2022-09-18T00:05:11.550Z,15.33
2022-09-18T00:06:43.290Z,10.86
2022-09-18T00:08:14.602Z,12.68
2022-09-18T00:09:45.921Z,10.84
2022-09-18T00:11:17.366Z,13.55
2022-09-18T00:12:48.819Z,11.85
2022-09-18T00:14:20.065Z,11.38
2022-09-18T00:15:51.405Z,12.51
2022-09-18T00:17:22.826Z,12.72
2022-09-18T00:18:54.152Z,12.47
2022-09-18T00:20:25.607Z,11.14
2022-09-18T00:21:57.188Z,13.16
2022-09-18T00:23:28.538Z,13.03
2022-09-18T00:24:59.843Z,13.99
2022-09-18T00:26:32.041Z,14.29
2022-09-18T00:28:03.390Z,14.37
2022-09-18T00:29:34.726Z,11.85
2022-09-18T00:31:06.360Z,13.06
2022-09-18T00:32:37.847Z,12.96
2022-09-18T00:34:14.351Z,15.08
2022-09-18T00:35:45.681Z,15.55
2022-09-18T00:37:17.443Z,14.03
2022-09-18T00:38:49.043Z,13.31
2022-09-18T00:40:20.435Z,13.18
2022-09-18T00:41:52.056Z,11.32
2022-09-18T00:43:23.419Z,11.87
2022-09-18T00:44:54.773Z,12.46
2022-09-18T00:46:26.206Z,13.42
2022-09-18T00:47:57.662Z,12.42
2022-09-18T00:49:29.197Z,12.61
2022-09-18T00:51:00.552Z,10.98
2022-09-18T00:52:32.165Z,13.51
2022-09-18T00:54:03.375Z,14.13
2022-09-18T00:55:36.400Z,15.49
2022-09-18T00:57:07.697Z,14.55
2022-09-18T00:58:38.944Z,12.78
2022-09-18T01:00:10.778Z,11.92
2022-09-18T01:01:42.115Z,13.96
2022-09-18T01:03:13.555Z,12.18
2022-09-18T01:04:44.760Z,15.12
2022-09-18T01:06:16.277Z,14.54
2022-09-18T01:07:47.689Z,13.38
2022-09-18T01:09:28.355Z,12.63
2022-09-18T01:11:00.211Z,11.84
2022-09-18T01:12:31.727Z,13.62
2022-09-18T01:14:03.045Z,13.59
2022-09-18T01:15:34.430Z,12.91
2022-09-18T01:17:05.906Z,11.14
2022-09-18T01:18:37.151Z,16.00
2022-09-18T01:20:08.443Z,13.93
2022-09-18T01:21:39.684Z,14.85
2022-09-18T01:23:11.095Z,13.25
2022-09-18T01:24:42.357Z,12.75
2022-09-18T01:26:13.656Z,13.10
2022-09-18T01:27:44.950Z,14.88
2022-09-18T01:29:16.285Z,14.25
2022-09-18T01:30:47.615Z,13.11
2022-09-18T01:32:18.963Z,13.64
2022-09-18T01:33:50.280Z,15.24
2022-09-18T01:35:39.559Z,12.17
2022-09-18T01:37:12.258Z,13.93
2022-09-18T01:38:43.709Z,13.24
2022-09-18T01:40:15.222Z,15.11
2022-09-18T01:41:46.724Z,14.25
2022-09-18T01:43:18.118Z,15.40
2022-09-18T01:44:49.386Z,12.52
2022-09-18T01:46:21.031Z,15.77
2022-09-18T01:47:52.589Z,13.81
2022-09-18T01:49:23.832Z,13.81
2022-09-18T01:50:55.253Z,14.29
2022-09-18T01:52:26.569Z,14.10
2022-09-18T01:53:58.303Z,15.51
2022-09-18T01:55:29.793Z,16.74
2022-09-18T01:57:01.001Z,14.38
2022-09-18T01:58:32.371Z,15.79
2022-09-18T02:00:03.819Z,14.24
2022-09-18T02:01:35.209Z,12.61
2022-09-18T02:03:07.018Z,12.41
2022-09-18T02:04:38.538Z,16.41
2022-09-18T02:06:09.870Z,15.17
2022-09-18T02:07:41.313Z,16.30
2022-09-18T02:09:12.897Z,13.29
2022-09-18T02:10:44.216Z,14.27
2022-09-18T02:12:15.558Z,13.78
2022-09-18T02:13:46.778Z,14.34
2022-09-18T02:15:18.517Z,15.20
2022-09-18T02:16:49.819Z,12.51
2022-09-18T02:18:21.348Z,13.64
2022-09-18T02:19:52.778Z,14.50
2022-09-18T02:21:24.071Z,15.30
2022-09-18T02:22:55.392Z,14.15
2022-09-18T02:24:26.822Z,15.34
2022-09-18T02:25:58.412Z,15.62
2022-09-18T02:27:29.711Z,16.88
2022-09-18T02:29:01.197Z,15.16
2022-09-18T02:30:32.578Z,20.87
2022-09-18T02:32:03.769Z,15.97
2022-09-18T02:33:35.341Z,16.65
2022-09-18T02:35:06.893Z,16.80
2022-09-18T02:36:38.141Z,16.23
2022-09-18T02:38:09.653Z,16.41
2022-09-18T02:39:41.034Z,17.16
2022-09-18T02:41:12.486Z,15.82
2022-09-18T02:42:43.958Z,16.96
2022-09-18T02:44:15.170Z,17.09
2022-09-18T02:45:46.521Z,18.52
2022-09-18T02:47:17.814Z,18.47
2022-09-18T02:48:49.193Z,16.97
2022-09-18T02:50:20.821Z,18.60
2022-09-18T02:51:52.269Z,17.11
2022-09-18T02:53:23.603Z,19.21
2022-09-18T02:54:55.077Z,16.64
2022-09-18T02:56:26.269Z,16.16
2022-09-18T02:57:57.485Z,15.16
2022-09-18T02:59:28.895Z,17.78
2022-09-18T03:01:00.351Z,17.63
2022-09-18T03:02:31.796Z,15.28
2022-09-18T03:04:03.303Z,17.22
2022-09-18T03:05:34.898Z,18.22
2022-09-18T03:07:06.210Z,16.44
2022-09-18T03:08:37.687Z,18.19
2022-09-18T03:10:10.047Z,16.47
2022-09-18T03:11:41.396Z,16.08
2022-09-18T03:13:12.722Z,19.71
2022-09-18T03:14:45.232Z,18.92
2022-09-18T03:16:16.580Z,17.65
2022-09-18T03:17:47.913Z,18.14
2022-09-18T03:19:19.373Z,16.44
2022-09-18T03:20:51.148Z,20.27
2022-09-18T03:22:22.570Z,19.06
2022-09-18T03:23:58.995Z,17.72
2022-09-18T03:25:30.474Z,16.08
2022-09-18T03:27:01.853Z,17.12
2022-09-18T03:28:33.094Z,20.28
2022-09-18T03:30:04.438Z,19.47
2022-09-18T03:31:36.135Z,19.88
2022-09-18T03:33:07.750Z,20.37
2022-09-18T03:34:39.135Z,18.15
2022-09-18T03:36:10.615Z,19.00
2022-09-18T03:37:42.506Z,19.50
2022-09-18T03:39:16.153Z,18.69
2022-09-18T03:40:48.195Z,20.22
2022-09-18T03:42:19.774Z,20.41
2022-09-18T03:43:51.152Z,20.10
2022-09-18T03:45:22.702Z,20.73
2022-09-18T03:46:54.169Z,19.38
2022-09-18T03:48:25.710Z,19.43
2022-09-18T03:49:56.966Z,20.49
2022-09-18T03:51:28.332Z,20.44
2022-09-18T03:52:59.819Z,20.07
2022-09-18T03:54:31.126Z,18.86
2022-09-18T03:56:02.562Z,18.68
2022-09-18T03:57:34.449Z,21.41
2022-09-18T03:59:05.845Z,23.56
2022-09-18T04:00:37.407Z,22.76
2022-09-18T04:02:08.720Z,22.37
2022-09-18T04:03:40.118Z,23.46
2022-09-18T04:05:11.307Z,26.48
2022-09-18T04:06:42.771Z,23.83
2022-09-18T04:08:14.045Z,23.64
2022-09-18T04:09:45.458Z,21.72
2022-09-18T04:11:16.833Z,22.22
2022-09-18T04:12:48.518Z,22.73
2022-09-18T04:14:20.131Z,24.53
2022-09-18T04:15:51.529Z,23.96
2022-09-18T04:17:23.037Z,23.61
2022-09-18T04:18:54.478Z,23.30
2022-09-18T04:20:25.880Z,20.97
2022-09-18T04:21:57.483Z,24.84
2022-09-18T04:23:28.763Z,21.38
2022-09-18T04:25:00.081Z,24.30
2022-09-18T04:26:31.677Z,24.47
2022-09-18T04:28:03.067Z,23.34
2022-09-18T04:29:34.649Z,21.10
2022-09-18T04:31:06.097Z,20.56
2022-09-18T04:32:37.641Z,21.13
2022-09-18T04:34:08.971Z,21.44
2022-09-18T04:35:40.193Z,20.58
2022-09-18T04:37:11.521Z,20.83
2022-09-18T04:39:22.348Z,23.59
2022-09-18T04:41:15.010Z,20.34
2022-09-18T04:42:46.720Z,19.92
2022-09-18T04:44:18.168Z,19.82
2022-09-18T04:45:49.459Z,20.12
2022-09-18T04:47:20.831Z,20.64
2022-09-18T04:48:52.430Z,22.54
2022-09-18T04:50:23.942Z,22.59
2022-09-18T04:51:55.420Z,19.88
2022-09-18T04:53:27.019Z,22.45
2022-09-18T04:54:58.573Z,19.86
2022-09-18T04:56:29.993Z,18.38
2022-09-18T04:58:01.537Z,20.26
2022-09-18T04:59:32.900Z,19.21
2022-09-18T05:01:04.227Z,19.72
2022-09-18T05:02:35.728Z,20.60
2022-09-18T05:04:07.191Z,18.11
2022-09-18T05:05:38.645Z,18.77
2022-09-18T05:07:09.954Z,22.98
2022-09-18T05:08:41.178Z,21.62
2022-09-18T05:10:12.507Z,17.08
2022-09-18T05:11:43.987Z,17.23
2022-09-18T05:13:15.496Z,18.75
2022-09-18T05:14:46.808Z,20.18
2022-09-18T05:16:18.090Z,21.10
2022-09-18T05:17:49.504Z,19.15
2022-09-18T05:19:20.897Z,21.20
2022-09-18T05:20:52.238Z,17.71
2022-09-18T05:22:23.939Z,20.70
2022-09-18T05:23:55.375Z,18.14
2022-09-18T05:25:26.794Z,18.84
2022-09-18T05:26:58.188Z,18.80
2022-09-18T05:28:29.455Z,15.74
2022-09-18T05:30:35.671Z,17.67
2022-09-18T05:32:07.664Z,19.27
2022-09-18T05:33:38.940Z,17.35
2022-09-18T05:35:10.301Z,16.48
2022-09-18T05:36:46.707Z,16.24
2022-09-18T05:38:18.194Z,17.90
2022-09-18T05:39:50.804Z,15.00
2022-09-18T05:41:22.137Z,17.77
2022-09-18T05:42:53.719Z,16.13
2022-09-18T05:44:25.040Z,15.46
2022-09-18T05:45:56.471Z,13.36
2022-09-18T05:47:28.156Z,12.43
2022-09-18T05:48:59.594Z,14.79
2022-09-18T05:50:30.975Z,17.36
2022-09-18T05:52:02.291Z,15.38
2022-09-18T05:53:33.938Z,13.90
2022-09-18T05:55:05.677Z,19.73
2022-09-18T05:56:37.194Z,16.49
2022-09-18T05:58:08.565Z,15.49
2022-09-18T05:59:42.127Z,15.76
2022-09-18T06:01:13.405Z,17.56
2022-09-18T06:02:44.980Z,14.02
2022-09-18T06:04:16.491Z,14.28
2022-09-18T06:05:47.743Z,17.83
2022-09-18T06:07:19.109Z,18.18
2022-09-18T06:08:50.519Z,17.03
2022-09-18T06:10:21.930Z,16.90
2022-09-18T06:11:53.249Z,16.45
2022-09-18T06:13:24.829Z,17.69
2022-09-18T06:14:56.256Z,16.04
2022-09-18T06:16:27.804Z,16.60
2022-09-18T06:17:59.198Z,15.48
2022-09-18T06:19:30.438Z,16.08
2022-09-18T06:21:01.909Z,16.96
2022-09-18T06:22:33.368Z,18.61
2022-09-18T06:24:04.781Z,17.36
2022-09-18T06:25:41.068Z,17.66
2022-09-18T06:27:12.473Z,15.98
2022-09-18T06:28:43.707Z,18.41
2022-09-18T06:30:15.077Z,20.52
2022-09-18T06:31:46.338Z,18.72
2022-09-18T06:33:17.691Z,16.33
2022-09-18T06:34:49.068Z,15.22
2022-09-18T06:36:20.512Z,17.20
2022-09-18T06:37:51.986Z,16.57
2022-09-18T06:39:23.396Z,17.50
2022-09-18T06:40:54.940Z,16.53
2022-09-18T06:42:26.313Z,16.10
2022-09-18T06:43:57.605Z,18.59
2022-09-18T06:45:28.908Z,17.76
2022-09-18T06:47:00.439Z,17.77
2022-09-18T06:48:55.656Z,19.25
2022-09-18T06:50:27.073Z,17.47
2022-09-18T06:51:58.631Z,17.16
2022-09-18T06:53:29.875Z,18.16
2022-09-18T06:55:01.273Z,15.94
2022-09-18T06:56:33.161Z,17.99
2022-09-18T06:58:05.056Z,15.28
2022-09-18T06:59:36.410Z,14.57
2022-09-18T07:01:07.722Z,18.26
2022-09-18T07:02:39.055Z,17.76
2022-09-18T07:04:10.470Z,16.03
2022-09-18T07:05:42.121Z,14.79
2022-09-18T07:07:13.412Z,17.08
2022-09-18T07:08:44.833Z,15.24
2022-09-18T07:10:16.171Z,16.10
2022-09-18T07:11:52.464Z,18.18
2022-09-18T07:13:24.083Z,18.87
2022-09-18T07:14:55.493Z,16.06
2022-09-18T07:16:27.083Z,18.19
2022-09-18T07:17:58.557Z,15.35
2022-09-18T07:19:29.969Z,19.54
2022-09-18T07:21:01.430Z,17.09
2022-09-18T07:22:32.706Z,16.82
2022-09-18T07:24:04.180Z,16.65
2022-09-18T07:25:35.556Z,16.60
2022-09-18T07:27:06.780Z,15.93
2022-09-18T07:28:38.208Z,17.48
2022-09-18T07:30:09.417Z,18.14
2022-09-18T07:31:40.692Z,16.30
2022-09-18T07:33:12.028Z,13.92
2022-09-18T07:34:43.369Z,17.20
2022-09-18T07:36:14.888Z,15.69
2022-09-18T07:37:46.644Z,17.44
2022-09-18T07:39:18.118Z,18.69
2022-09-18T07:40:49.658Z,18.07
2022-09-18T07:42:21.015Z,16.86
2022-09-18T07:43:52.465Z,17.91
2022-09-18T07:45:23.883Z,15.03
2022-09-18T07:46:56.641Z,15.18
2022-09-18T07:48:28.415Z,14.52
2022-09-18T07:49:59.825Z,16.22
2022-09-18T07:51:31.310Z,14.48
2022-09-18T07:53:02.698Z,16.29
2022-09-18T07:54:39.154Z,16.47
2022-09-18T07:56:10.789Z,15.38
2022-09-18T07:57:42.179Z,14.82
2022-09-18T07:59:13.544Z,14.13
2022-09-18T08:00:45.367Z,14.32
2022-09-18T08:02:17.114Z,17.02
2022-09-18T08:03:48.955Z,16.68
2022-09-18T08:05:20.525Z,13.59
2022-09-18T08:06:51.925Z,14.94
2022-09-18T08:08:23.410Z,16.52
2022-09-18T08:09:54.634Z,14.65
2022-09-18T08:11:26.127Z,13.75
2022-09-18T08:12:57.643Z,12.95
2022-09-18T08:14:29.364Z,15.23
2022-09-18T08:16:00.743Z,10.65
2022-09-18T08:17:32.178Z,10.25
2022-09-18T08:19:03.751Z,9.45
2022-09-18T08:20:35.055Z,11.04
2022-09-18T08:22:06.715Z,8.14
2022-09-18T08:23:38.070Z,8.32
2022-09-18T08:25:09.377Z,10.50
2022-09-18T08:26:40.742Z,8.32
2022-09-18T08:28:12.211Z,10.26
2022-09-18T08:29:43.461Z,10.81
2022-09-18T08:31:14.892Z,9.31
2022-09-18T08:32:46.373Z,8.63
2022-09-18T08:34:18.341Z,7.67
2022-09-18T08:35:49.573Z,6.69
2022-09-18T08:37:20.914Z,6.45
2022-09-18T08:38:52.340Z,7.98
2022-09-18T08:40:23.822Z,7.03
2022-09-18T08:41:55.306Z,6.28
2022-09-18T08:43:26.725Z,6.65
2022-09-18T08:44:58.115Z,6.13
2022-09-18T08:46:29.594Z,8.16
2022-09-18T08:48:00.958Z,7.46
2022-09-18T08:49:32.274Z,11.16
2022-09-18T08:51:03.611Z,9.86
2022-09-18T08:52:34.896Z,6.31
2022-09-18T08:54:07.544Z,5.46
2022-09-18T08:55:38.897Z,6.37
2022-09-18T08:57:15.229Z,7.71
2022-09-18T08:58:46.842Z,6.83
2022-09-18T09:00:18.281Z,7.26
2022-09-18T09:01:49.713Z,11.08
2022-09-18T09:03:21.171Z,8.39
2022-09-18T09:04:52.568Z,7.39
2022-09-18T09:06:23.980Z,6.58
2022-09-18T09:07:55.476Z,6.10
2022-09-18T09:09:27.005Z,6.62
2022-09-18T09:10:58.309Z,6.96
2022-09-18T09:12:29.607Z,7.22
2022-09-18T09:14:00.964Z,6.70
2022-09-18T09:15:32.649Z,7.65
2022-09-18T09:17:03.936Z,7.47
2022-09-18T09:18:35.306Z,9.12
2022-09-18T09:20:06.631Z,10.13
2022-09-18T09:21:37.937Z,8.52
2022-09-18T09:23:09.387Z,12.12
2022-09-18T09:24:40.780Z,9.53
2022-09-18T09:26:12.262Z,8.66
2022-09-18T09:27:43.511Z,9.62
2022-09-18T09:29:16.002Z,10.82
2022-09-18T09:30:47.221Z,10.51
2022-09-18T09:32:18.531Z,9.11
2022-09-18T09:33:49.955Z,7.92
2022-09-18T09:35:21.573Z,8.91
2022-09-18T09:36:52.991Z,7.76
2022-09-18T09:38:24.510Z,9.45
2022-09-18T09:39:56.022Z,9.07
2022-09-18T09:41:27.342Z,9.11
2022-09-18T09:43:00.291Z,7.70
2022-09-18T09:44:31.682Z,8.34
2022-09-18T09:46:03.259Z,9.79
2022-09-18T09:47:34.839Z,9.93
2022-09-18T09:49:06.062Z,8.06
2022-09-18T09:50:37.307Z,10.15
2022-09-18T09:52:09.502Z,9.78
2022-09-18T09:53:40.998Z,8.54
2022-09-18T09:55:12.177Z,9.87
2022-09-18T09:56:43.644Z,8.25
2022-09-18T09:58:15.152Z,6.76
2022-09-18T09:59:46.673Z,9.09
2022-09-18T10:01:19.159Z,8.64
2022-09-18T10:02:50.545Z,7.12
2022-09-18T10:04:22.186Z,6.71
2022-09-18T10:05:53.897Z,7.03
2022-09-18T10:07:25.369Z,7.87
2022-09-18T10:08:56.710Z,8.04
2022-09-18T10:10:28.112Z,7.41
2022-09-18T10:11:59.580Z,6.53
2022-09-18T10:13:30.833Z,6.16
2022-09-18T10:15:02.357Z,4.32
2022-09-18T10:16:33.819Z,6.44
2022-09-18T10:18:05.434Z,5.80
2022-09-18T10:19:36.778Z,5.96
2022-09-18T10:21:08.175Z,6.36
2022-09-18T10:22:39.760Z,6.80
2022-09-18T10:24:10.986Z,5.43
2022-09-18T10:25:42.549Z,6.79
2022-09-18T10:27:13.908Z,4.95
2022-09-18T10:28:45.782Z,6.13
2022-09-18T10:30:17.566Z,5.82
2022-09-18T10:31:49.124Z,4.66
2022-09-18T10:33:20.621Z,7.30
2022-09-18T10:34:52.140Z,6.26
2022-09-18T10:36:23.714Z,7.08
2022-09-18T10:37:57.146Z,6.17
2022-09-18T10:39:34.873Z,5.18
2022-09-18T10:41:06.687Z,5.29
2022-09-18T10:42:38.228Z,5.27
2022-09-18T10:44:09.635Z,5.82
2022-09-18T10:45:41.069Z,6.39
2022-09-18T10:47:12.445Z,4.92
2022-09-18T10:48:43.697Z,4.11
2022-09-18T10:50:16.158Z,5.39
2022-09-18T10:51:48.239Z,6.91
2022-09-18T10:53:20.786Z,5.29
2022-09-18T10:54:52.065Z,5.72
2022-09-18T10:56:28.564Z,5.28
2022-09-18T10:58:00.363Z,4.75
2022-09-18T10:59:32.182Z,6.70
2022-09-18T11:01:03.734Z,4.84
2022-09-18T11:02:35.510Z,5.15
2022-09-18T11:04:06.970Z,3.95
2022-09-18T11:05:38.471Z,4.41
2022-09-18T11:07:10.020Z,4.95
2022-09-18T11:08:41.803Z,4.42
2022-09-18T11:10:13.619Z,5.06
2022-09-18T11:11:45.140Z,6.42
2022-09-18T11:13:16.698Z,5.38
2022-09-18T11:14:48.351Z,4.71
2022-09-18T11:16:19.940Z,5.48
2022-09-18T11:17:52.022Z,7.94
2022-09-18T11:19:23.914Z,7.50
2022-09-18T11:20:55.797Z,7.26
2022-09-18T11:22:27.694Z,7.92
2022-09-18T11:23:59.501Z,8.29
2022-09-18T11:25:31.752Z,7.82
2022-09-18T11:27:09.005Z,7.21
2022-09-18T11:28:40.771Z,8.35
2022-09-18T11:30:12.804Z,8.13
2022-09-18T11:31:44.724Z,6.25
2022-09-18T11:33:17.193Z,6.38
2022-09-18T11:34:48.984Z,6.16
2022-09-18T11:36:22.039Z,5.46
2022-09-18T11:37:53.730Z,5.40
2022-09-18T11:39:25.832Z,5.59
2022-09-18T11:40:57.213Z,7.05
2022-09-18T11:42:29.271Z,6.28
2022-09-18T11:44:00.895Z,7.77
2022-09-18T11:45:32.825Z,6.61
2022-09-18T11:47:09.840Z,5.68
2022-09-18T11:48:46.895Z,5.68
2022-09-18T11:50:19.129Z,6.39
2022-09-18T11:52:05.426Z,4.52
2022-09-18T11:53:43.065Z,4.74
2022-09-18T11:55:14.428Z,4.84
2022-09-18T11:56:50.897Z,4.12
2022-09-18T11:58:22.785Z,5.20
2022-09-18T11:59:54.187Z,4.86
2022-09-18T12:01:25.874Z,5.30
2022-09-18T12:03:13.749Z,4.73
2022-09-18T12:04:51.580Z,4.95
2022-09-18T12:06:23.022Z,4.58
2022-09-18T12:07:53.107Z,6.86
2022-09-18T12:09:29.466Z,5.31
2022-09-18T12:11:00.895Z,4.14
2022-09-18T12:12:32.223Z,4.69
2022-09-18T12:14:03.860Z,5.62
2022-09-18T12:15:35.334Z,6.45
2022-09-18T12:17:06.586Z,5.48
2022-09-18T12:18:37.866Z,5.63
2022-09-18T12:20:09.161Z,5.19
2022-09-18T12:21:40.454Z,4.06
2022-09-18T12:23:11.949Z,5.78
2022-09-18T12:24:48.606Z,6.52
2022-09-18T12:26:20.003Z,5.09
2022-09-18T12:27:51.325Z,6.98
2022-09-18T12:29:22.669Z,5.08
2022-09-18T12:30:54.074Z,5.84
2022-09-18T12:32:25.494Z,6.14
2022-09-18T12:34:01.826Z,5.37
2022-09-18T12:35:38.137Z,5.60
2022-09-18T12:37:15.378Z,5.10
2022-09-18T12:38:48.685Z,4.50
2022-09-18T12:40:20.244Z,4.95
2022-09-18T12:41:51.618Z,6.24
2022-09-18T12:43:22.987Z,5.88
2022-09-18T12:44:54.254Z,6.30
2022-09-18T12:46:25.588Z,5.96
2022-09-18T12:47:56.944Z,7.12
2022-09-18T12:49:33.313Z,3.96
2022-09-18T12:51:04.758Z,6.00
2022-09-18T12:53:00.294Z,7.87
2022-09-18T12:54:37.787Z,7.55
2022-09-18T12:56:14.283Z,7.03
2022-09-18T12:57:45.646Z,8.30
2022-09-18T12:59:16.883Z,5.99
2022-09-18T13:00:48.262Z,7.01
2022-09-18T13:02:19.602Z,4.94
2022-09-18T13:03:51.260Z,5.20
2022-09-18T13:05:22.628Z,7.94
2022-09-18T13:06:54.437Z,6.86
2022-09-18T13:08:25.691Z,7.09
2022-09-18T13:09:57.019Z,6.95
2022-09-18T13:11:28.342Z,6.27
2022-09-18T13:12:59.578Z,5.99
2022-09-18T13:14:31.093Z,4.82
2022-09-18T13:16:02.337Z,6.32
2022-09-18T13:17:34.498Z,6.82
2022-09-18T13:19:06.210Z,5.95
2022-09-18T13:20:42.568Z,5.34
2022-09-18T13:22:13.834Z,7.07
2022-09-18T13:23:45.130Z,7.39
2022-09-18T13:25:16.435Z,6.11
2022-09-18T13:26:47.965Z,4.57
2022-09-18T13:28:19.585Z,7.51
2022-09-18T13:29:55.929Z,7.76
2022-09-18T13:31:27.365Z,4.95
2022-09-18T13:33:03.702Z,4.54
2022-09-18T13:34:35.006Z,5.53
2022-09-18T13:36:12.476Z,4.39
2022-09-18T13:37:44.064Z,7.32
2022-09-18T13:39:15.302Z,5.50
2022-09-18T13:40:46.691Z,6.09
2022-09-18T13:42:18.057Z,5.50
2022-09-18T13:43:50.697Z,4.82
2022-09-18T13:45:22.097Z,3.52
2022-09-18T13:46:53.569Z,4.67
2022-09-18T13:48:24.925Z,3.82
2022-09-18T13:49:56.354Z,4.17
2022-09-18T13:51:31.309Z,4.19
2022-09-18T13:53:03.037Z,4.89
2022-09-18T13:54:34.756Z,3.85
2022-09-18T13:56:06.261Z,3.22
2022-09-18T13:57:37.594Z,4.23
2022-09-18T13:59:08.994Z,2.83
2022-09-18T14:00:46.721Z,5.24
2022-09-18T14:02:18.381Z,3.27
2022-09-18T14:03:49.754Z,3.85
2022-09-18T14:05:26.026Z,4.73
2022-09-18T14:07:02.227Z,4.48
2022-09-18T14:08:33.449Z,4.99
2022-09-18T14:10:09.834Z,5.90
2022-09-18T14:11:41.644Z,6.30
2022-09-18T14:13:12.972Z,3.30
2022-09-18T14:14:44.290Z,5.45
2022-09-18T14:16:15.665Z,4.89
2022-09-18T14:17:47.477Z,5.17
2022-09-18T14:19:18.844Z,4.70
2022-09-18T14:20:55.226Z,4.29
2022-09-18T14:22:26.480Z,6.67
2022-09-18T14:23:58.305Z,4.57
2022-09-18T14:25:34.933Z,4.71
2022-09-18T14:27:06.603Z,5.06
2022-09-18T14:28:37.934Z,6.35
2022-09-18T14:30:09.409Z,5.45
2022-09-18T14:31:40.788Z,5.41
2022-09-18T14:33:12.104Z,6.83
2022-09-18T14:34:43.403Z,4.05
2022-09-18T14:36:15.077Z,4.18
2022-09-18T14:37:46.358Z,4.22
2022-09-18T14:39:17.836Z,5.56
2022-09-18T14:40:49.504Z,5.42
2022-09-18T14:42:21.026Z,4.56
2022-09-18T14:43:52.598Z,5.84
2022-09-18T14:45:28.935Z,4.10
2022-09-18T14:47:05.253Z,6.48
2022-09-18T14:48:36.906Z,5.64
2022-09-18T14:50:08.321Z,4.66
2022-09-18T14:52:00.555Z,4.55
2022-09-18T14:53:36.100Z,6.08
2022-09-18T14:55:12.770Z,5.76
2022-09-18T14:56:44.240Z,6.54
2022-09-18T14:58:15.682Z,5.03
2022-09-18T14:59:47.497Z,3.95
2022-09-18T15:01:18.923Z,4.99
2022-09-18T15:02:50.527Z,4.67
2022-09-18T15:04:22.117Z,5.21
2022-09-18T15:05:53.515Z,5.95
2022-09-18T15:07:25.376Z,4.23
2022-09-18T15:08:56.816Z,4.47
2022-09-18T15:10:28.273Z,4.67
2022-09-18T15:12:02.591Z,4.92
2022-09-18T15:13:34.631Z,5.38
2022-09-18T15:15:06.216Z,7.01
2022-09-18T15:16:37.758Z,5.27
2022-09-18T15:18:10.803Z,5.12
2022-09-18T15:19:42.150Z,7.58
2022-09-18T15:21:13.648Z,7.16
2022-09-18T15:22:44.992Z,5.12
2022-09-18T15:24:16.860Z,5.40
2022-09-18T15:25:48.616Z,6.50
2022-09-18T15:27:20.023Z,6.57
2022-09-18T15:28:51.539Z,7.74
2022-09-18T15:30:23.058Z,5.83
2022-09-18T15:31:54.728Z,6.36
2022-09-18T15:33:26.262Z,6.38
2022-09-18T15:34:57.893Z,6.20
2022-09-18T15:36:29.440Z,7.62
2022-09-18T15:38:02.837Z,6.94
2022-09-18T15:39:34.908Z,6.30
2022-09-18T15:41:06.676Z,7.81
2022-09-18T15:42:38.244Z,9.34
2022-09-18T15:44:09.708Z,7.55
2022-09-18T15:45:41.178Z,8.77
2022-09-18T15:47:12.507Z,7.90
2022-09-18T15:48:44.049Z,8.34
2022-09-18T15:50:15.567Z,7.96
2022-09-18T15:51:46.874Z,8.84
2022-09-18T15:53:18.478Z,5.81
2022-09-18T15:54:54.886Z,8.24
2022-09-18T15:56:26.308Z,10.01
2022-09-18T15:57:58.015Z,11.41
2022-09-18T15:59:42.178Z,7.71
2022-09-18T16:01:13.835Z,7.28
2022-09-18T16:02:45.388Z,7.15
2022-09-18T16:04:16.890Z,8.75
2022-09-18T16:05:48.301Z,6.45
2022-09-18T16:07:24.609Z,9.90
2022-09-18T16:08:56.088Z,6.77
2022-09-18T16:10:28.268Z,7.20
2022-09-18T16:11:59.920Z,6.30
2022-09-18T16:13:31.523Z,7.64
2022-09-18T16:15:03.176Z,7.22
2022-09-18T16:16:35.053Z,5.51
2022-09-18T16:18:06.672Z,5.66
2022-09-18T16:19:39.102Z,6.00
2022-09-18T16:21:10.682Z,7.04
2022-09-18T16:22:42.036Z,6.24
2022-09-18T16:24:14.655Z,7.70
2022-09-18T16:25:46.246Z,7.25
2022-09-18T16:27:17.852Z,8.60
2022-09-18T16:28:59.303Z,8.19
2022-09-18T16:30:32.688Z,8.30
2022-09-18T16:32:09.133Z,6.56
2022-09-18T16:34:06.680Z,6.43
2022-09-18T16:35:38.366Z,7.87
2022-09-18T16:37:10.091Z,5.88
2022-09-18T16:38:41.432Z,7.07
2022-09-18T16:40:13.093Z,5.72
2022-09-18T16:41:49.666Z,5.13
2022-09-18T16:43:46.372Z,5.07
2022-09-18T16:45:32.874Z,6.41
2022-09-18T16:47:04.362Z,5.32
2022-09-18T16:48:52.449Z,6.75
2022-09-18T16:50:23.955Z,5.53
2022-09-18T16:51:55.421Z,5.51
2022-09-18T16:53:41.773Z,4.02
2022-09-18T16:55:18.287Z,6.43
2022-09-18T16:56:53.538Z,4.64
2022-09-18T16:58:44.269Z,5.40
2022-09-18T17:00:20.913Z,6.26
2022-09-18T17:02:02.955Z,9.20
2022-09-18T17:03:46.268Z,10.93
2022-09-18T17:05:26.669Z,7.57
2022-09-18T17:06:58.111Z,7.02
2022-09-18T17:08:34.772Z,5.96
2022-09-18T17:10:06.299Z,7.46
2022-09-18T17:11:37.795Z,6.80
2022-09-18T17:13:09.244Z,4.51
2022-09-18T17:14:40.552Z,7.13
2022-09-18T17:16:19.175Z,9.28
2022-09-18T17:17:57.568Z,8.66
2022-09-18T17:19:29.123Z,12.87
2022-09-18T17:21:13.982Z,9.63
2022-09-18T17:22:45.541Z,7.78
2022-09-18T17:24:39.218Z,8.43
2022-09-18T17:26:26.502Z,7.52
2022-09-18T17:28:28.697Z,7.50
2022-09-18T17:30:00.101Z,7.13
2022-09-18T17:31:31.734Z,7.62
2022-09-18T17:33:03.166Z,5.11
2022-09-18T17:34:55.458Z,5.73
2022-09-18T17:36:27.975Z,7.93
2022-09-18T17:38:06.116Z,7.15
2022-09-18T17:39:37.571Z,5.63
2022-09-18T17:41:10.154Z,4.61
2022-09-18T17:42:41.455Z,6.24
2022-09-18T17:44:12.718Z,6.12
2022-09-18T17:45:44.429Z,6.23
2022-09-18T17:47:15.717Z,4.60
2022-09-18T17:48:52.028Z,3.97
2022-09-18T17:50:28.624Z,4.66
2022-09-18T17:52:15.306Z,5.16
2022-09-18T17:54:00.505Z,5.98
2022-09-18T17:55:31.863Z,6.62
2022-09-18T17:57:03.221Z,8.22
2022-09-18T17:58:34.440Z,9.98
2022-09-18T18:00:05.686Z,7.05
2022-09-18T18:01:36.993Z,5.81
2022-09-18T18:03:42.510Z,5.05
2022-09-18T18:05:28.433Z,4.85
2022-09-18T18:07:00.339Z,4.81
2022-09-18T18:08:59.180Z,5.74
2022-09-18T18:10:35.603Z,5.63
2022-09-18T18:12:27.096Z,5.51
2022-09-18T18:13:58.476Z,4.61
2022-09-18T18:15:30.326Z,4.58
2022-09-18T18:17:25.804Z,4.89
2022-09-18T18:19:07.668Z,4.56
2022-09-18T18:20:39.063Z,4.09
2022-09-18T18:22:15.646Z,4.34
2022-09-18T18:23:47.256Z,5.60
2022-09-18T18:25:18.803Z,5.06
2022-09-18T18:27:00.207Z,5.19
2022-09-18T18:28:46.510Z,4.74
2022-09-18T18:30:19.209Z,4.86
2022-09-18T18:31:51.275Z,5.18
2022-09-18T18:33:22.591Z,4.68
2022-09-18T18:34:53.922Z,4.49
2022-09-18T18:36:47.088Z,5.51
2022-09-18T18:38:23.490Z,9.16
2022-09-18T18:40:07.564Z,13.78
2022-09-18T18:41:39.525Z,18.53
2022-09-18T18:43:10.961Z,22.81
2022-09-18T18:44:43.461Z,10.72
2022-09-18T18:46:15.104Z,7.25
2022-09-18T18:47:46.615Z,8.61
2022-09-18T18:49:17.917Z,6.28
2022-09-18T18:50:49.559Z,4.79
2022-09-18T18:52:22.060Z,5.54
2022-09-18T18:53:58.532Z,6.44
2022-09-18T18:55:34.942Z,5.30
2022-09-18T18:57:11.311Z,8.50
2022-09-18T18:58:44.303Z,8.11
2022-09-18T19:00:15.685Z,5.63
2022-09-18T19:01:47.383Z,6.77
2022-09-18T19:03:28.916Z,7.89
2022-09-18T19:05:00.543Z,8.02
2022-09-18T19:06:31.975Z,6.11
2022-09-18T19:08:13.404Z,6.30
2022-09-18T19:09:44.954Z,6.52
2022-09-18T19:11:29.620Z,7.50
2022-09-18T19:13:01.289Z,9.84
2022-09-18T19:14:33.128Z,8.56
2022-09-18T19:16:05.909Z,9.25
2022-09-18T19:17:52.396Z,9.61
2022-09-18T19:19:34.439Z,7.24
2022-09-18T19:21:15.999Z,6.40
2022-09-18T19:22:53.078Z,5.83
2022-09-18T19:24:46.469Z,5.54
2022-09-18T19:26:23.231Z,6.58
2022-09-18T19:28:01.827Z,6.45
2022-09-18T19:29:33.317Z,8.31
2022-09-18T19:31:05.187Z,5.29
2022-09-18T19:32:36.935Z,6.37
2022-09-18T19:34:08.215Z,7.83
2022-09-18T19:35:39.655Z,7.49
2022-09-18T19:37:12.050Z,7.44
2022-09-18T19:38:45.600Z,8.58
2022-09-18T19:40:21.923Z,9.21
2022-09-18T19:41:53.724Z,8.19
2022-09-18T19:43:25.346Z,9.61
2022-09-18T19:44:56.844Z,8.57
2022-09-18T19:46:28.505Z,8.57
2022-09-18T19:47:59.958Z,8.43
2022-09-18T19:49:31.581Z,8.39
2022-09-18T19:51:03.600Z,7.66
2022-09-18T19:52:35.071Z,9.40
2022-09-18T19:54:06.527Z,9.64
2022-09-18T19:55:38.527Z,9.56
2022-09-18T19:57:12.994Z,8.94
2022-09-18T19:58:44.907Z,9.76
2022-09-18T20:00:21.369Z,8.00
2022-09-18T20:01:52.987Z,6.80
2022-09-18T20:03:24.483Z,8.33
2022-09-18T20:04:56.061Z,6.70
2022-09-18T20:06:27.453Z,7.77
2022-09-18T20:07:59.135Z,9.94
2022-09-18T20:09:30.670Z,9.69
2022-09-18T20:11:12.131Z,8.62
2022-09-18T20:12:43.539Z,7.82
2022-09-18T20:14:15.223Z,13.01
2022-09-18T20:15:46.800Z,9.29
2022-09-18T20:17:18.278Z,8.59
2022-09-18T20:18:49.858Z,8.64